sensor_id;sensor_type;location;lat;lon;timestamp;P1;durP1;ratioP1;P2;durP2;ratioP2
79284;SDS011;68734;50.452;11.636;2023-08-06T00:00:27;0.88;;;0.50;;
79284;SDS011;68734;50.452;11.636;2023-08-06T00:02:53;2.08;;;0.70;;
79284;SDS011;68734;50.452;11.636;2023-08-06T00:05:18;1.10;;;0.65;;
79284;SDS011;68734;50.452;11.636;2023-08-06T00:07:46;1.10;;;0.70;;
79284;SDS011;68734;50.452;11.636;2023-08-06T00:10:17;0.93;;;0.80;;
79284;SDS011;68734;50.452;11.636;2023-08-06T00:12:43;0.93;;;0.63;;
79284;SDS011;68734;50.452;11.636;2023-08-06T00:15:11;0.90;;;0.70;;
79284;SDS011;68734;50.452;11.636;2023-08-06T00:17:37;2.67;;;0.77;;
79284;SDS011;68734;50.452;11.636;2023-08-06T00:20:03;1.58;;;0.80;;
79284;SDS011;68734;50.452;11.636;2023-08-06T00:22:34;1.38;;;0.77;;
79284;SDS011;68734;50.452;11.636;2023-08-06T00:25:01;2.65;;;0.90;;
79284;SDS011;68734;50.452;11.636;2023-08-06T00:27:26;3.08;;;0.63;;
79284;SDS011;68734;50.452;11.636;2023-08-06T00:29:52;1.08;;;0.80;;
79284;SDS011;68734;50.452;11.636;2023-08-06T00:32:18;3.00;;;0.70;;
79284;SDS011;68734;50.452;11.636;2023-08-06T00:34:44;1.10;;;0.73;;
79284;SDS011;68734;50.452;11.636;2023-08-06T00:37:09;3.05;;;0.90;;
79284;SDS011;68734;50.452;11.636;2023-08-06T00:39:34;1.02;;;0.73;;
79284;SDS011;68734;50.452;11.636;2023-08-06T00:42:00;2.33;;;0.80;;
79284;SDS011;68734;50.452;11.636;2023-08-06T00:44:25;1.88;;;0.95;;
79284;SDS011;68734;50.452;11.636;2023-08-06T00:46:53;1.25;;;0.80;;
79284;SDS011;68734;50.452;11.636;2023-08-06T00:49:19;1.13;;;0.98;;
79284;SDS011;68734;50.452;11.636;2023-08-06T00:51:45;1.95;;;1.13;;
79284;SDS011;68734;50.452;11.636;2023-08-06T00:54:10;2.05;;;1.60;;
79284;SDS011;68734;50.452;11.636;2023-08-06T00:56:36;2.53;;;1.40;;
79284;SDS011;68734;50.452;11.636;2023-08-06T00:59:05;1.13;;;0.90;;
79284;SDS011;68734;50.452;11.636;2023-08-06T01:01:33;2.08;;;1.30;;
79284;SDS011;68734;50.452;11.636;2023-08-06T01:03:58;1.30;;;1.08;;
79284;SDS011;68734;50.452;11.636;2023-08-06T01:09:49;1.45;;;1.00;;
79284;SDS011;68734;50.452;11.636;2023-08-06T01:12:30;2.65;;;1.98;;
79284;SDS011;68734;50.452;11.636;2023-08-06T01:15:06;2.08;;;0.95;;
79284;SDS011;68734;50.452;11.636;2023-08-06T01:17:36;1.20;;;0.90;;
79284;SDS011;68734;50.452;11.636;2023-08-06T01:20:02;0.85;;;0.73;;
79284;SDS011;68734;50.452;11.636;2023-08-06T01:22:28;1.77;;;1.00;;
79284;SDS011;68734;50.452;11.636;2023-08-06T01:24:54;1.05;;;0.90;;
79284;SDS011;68734;50.452;11.636;2023-08-06T01:27:22;1.42;;;0.95;;
79284;SDS011;68734;50.452;11.636;2023-08-06T01:30:00;2.35;;;0.80;;
79284;SDS011;68734;50.452;11.636;2023-08-06T01:32:29;0.88;;;0.77;;
79284;SDS011;68734;50.452;11.636;2023-08-06T01:34:59;1.33;;;1.00;;
79284;SDS011;68734;50.452;11.636;2023-08-06T01:37:26;1.05;;;0.73;;
79284;SDS011;68734;50.452;11.636;2023-08-06T01:39:52;0.82;;;0.68;;
79284;SDS011;68734;50.452;11.636;2023-08-06T01:42:20;0.98;;;0.80;;
79284;SDS011;68734;50.452;11.636;2023-08-06T01:44:45;2.00;;;0.70;;
79284;SDS011;68734;50.452;11.636;2023-08-06T01:47:15;1.20;;;1.00;;
79284;SDS011;68734;50.452;11.636;2023-08-06T01:49:41;2.10;;;0.93;;
79284;SDS011;68734;50.452;11.636;2023-08-06T01:52:06;1.20;;;0.95;;
79284;SDS011;68734;50.452;11.636;2023-08-06T01:54:32;1.08;;;0.90;;
79284;SDS011;68734;50.452;11.636;2023-08-06T01:56:57;1.13;;;0.85;;
79284;SDS011;68734;50.452;11.636;2023-08-06T01:59:23;1.10;;;0.85;;
79284;SDS011;68734;50.452;11.636;2023-08-06T02:01:51;1.60;;;1.10;;
79284;SDS011;68734;50.452;11.636;2023-08-06T02:04:17;1.17;;;0.80;;
79284;SDS011;68734;50.452;11.636;2023-08-06T02:06:42;1.40;;;0.90;;
79284;SDS011;68734;50.452;11.636;2023-08-06T02:09:07;1.27;;;0.90;;
79284;SDS011;68734;50.452;11.636;2023-08-06T02:11:33;1.20;;;0.88;;
79284;SDS011;68734;50.452;11.636;2023-08-06T02:13:58;0.90;;;0.80;;
79284;SDS011;68734;50.452;11.636;2023-08-06T02:16:24;0.90;;;0.70;;
79284;SDS011;68734;50.452;11.636;2023-08-06T02:18:49;1.73;;;0.73;;
79284;SDS011;68734;50.452;11.636;2023-08-06T02:21:14;1.33;;;0.82;;
79284;SDS011;68734;50.452;11.636;2023-08-06T02:23:42;2.15;;;0.82;;
79284;SDS011;68734;50.452;11.636;2023-08-06T02:26:08;1.23;;;1.00;;
79284;SDS011;68734;50.452;11.636;2023-08-06T02:28:33;1.40;;;0.82;;
79284;SDS011;68734;50.452;11.636;2023-08-06T02:30:59;1.52;;;1.15;;
79284;SDS011;68734;50.452;11.636;2023-08-06T02:33:24;1.20;;;0.75;;
79284;SDS011;68734;50.452;11.636;2023-08-06T02:36:01;1.00;;;0.90;;
79284;SDS011;68734;50.452;11.636;2023-08-06T02:38:28;1.08;;;0.85;;
79284;SDS011;68734;50.452;11.636;2023-08-06T02:40:54;1.00;;;0.88;;
79284;SDS011;68734;50.452;11.636;2023-08-06T02:43:19;0.95;;;0.80;;
79284;SDS011;68734;50.452;11.636;2023-08-06T02:45:45;1.10;;;0.90;;
79284;SDS011;68734;50.452;11.636;2023-08-06T02:48:10;1.20;;;1.00;;
79284;SDS011;68734;50.452;11.636;2023-08-06T02:50:39;1.02;;;0.68;;
79284;SDS011;68734;50.452;11.636;2023-08-06T02:53:06;1.13;;;1.02;;
79284;SDS011;68734;50.452;11.636;2023-08-06T02:55:32;1.45;;;1.27;;
79284;SDS011;68734;50.452;11.636;2023-08-06T02:57:58;1.50;;;1.02;;
79284;SDS011;68734;50.452;11.636;2023-08-06T03:00:24;1.50;;;1.10;;
79284;SDS011;68734;50.452;11.636;2023-08-06T03:02:49;1.40;;;1.30;;
79284;SDS011;68734;50.452;11.636;2023-08-06T03:05:15;1.23;;;1.10;;
79284;SDS011;68734;50.452;11.636;2023-08-06T03:07:40;1.25;;;1.10;;
79284;SDS011;68734;50.452;11.636;2023-08-06T03:10:06;1.45;;;1.20;;
79284;SDS011;68734;50.452;11.636;2023-08-06T03:12:31;1.38;;;1.10;;
79284;SDS011;68734;50.452;11.636;2023-08-06T03:14:57;1.75;;;1.65;;
79284;SDS011;68734;50.452;11.636;2023-08-06T03:17:22;1.50;;;1.15;;
79284;SDS011;68734;50.452;11.636;2023-08-06T03:19:47;1.38;;;1.23;;
79284;SDS011;68734;50.452;11.636;2023-08-06T03:22:13;1.30;;;1.20;;
79284;SDS011;68734;50.452;11.636;2023-08-06T03:24:40;1.73;;;1.00;;
79284;SDS011;68734;50.452;11.636;2023-08-06T03:27:06;1.38;;;1.23;;
79284;SDS011;68734;50.452;11.636;2023-08-06T03:29:31;1.50;;;1.35;;
79284;SDS011;68734;50.452;11.636;2023-08-06T03:31:57;1.40;;;1.15;;
79284;SDS011;68734;50.452;11.636;2023-08-06T03:34:22;1.20;;;1.00;;
79284;SDS011;68734;50.452;11.636;2023-08-06T03:36:48;1.33;;;1.23;;
79284;SDS011;68734;50.452;11.636;2023-08-06T03:39:13;1.50;;;1.20;;
79284;SDS011;68734;50.452;11.636;2023-08-06T03:41:39;1.20;;;0.90;;
79284;SDS011;68734;50.452;11.636;2023-08-06T03:44:05;1.08;;;0.98;;
79284;SDS011;68734;50.452;11.636;2023-08-06T03:46:30;1.10;;;0.93;;
79284;SDS011;68734;50.452;11.636;2023-08-06T03:48:59;1.10;;;0.90;;
79284;SDS011;68734;50.452;11.636;2023-08-06T03:51:25;0.98;;;0.73;;
79284;SDS011;68734;50.452;11.636;2023-08-06T03:53:51;1.38;;;0.98;;
79284;SDS011;68734;50.452;11.636;2023-08-06T03:56:16;2.10;;;1.00;;
79284;SDS011;68734;50.452;11.636;2023-08-06T03:58:41;1.02;;;0.80;;
79284;SDS011;68734;50.452;11.636;2023-08-06T04:01:07;0.90;;;0.80;;
79284;SDS011;68734;50.452;11.636;2023-08-06T04:03:32;2.13;;;0.80;;
79284;SDS011;68734;50.452;11.636;2023-08-06T04:05:58;1.33;;;0.80;;
79284;SDS011;68734;50.452;11.636;2023-08-06T04:08:23;1.23;;;0.85;;
79284;SDS011;68734;50.452;11.636;2023-08-06T04:10:49;0.85;;;0.73;;
79284;SDS011;68734;50.452;11.636;2023-08-06T04:13:16;1.42;;;1.00;;
79284;SDS011;68734;50.452;11.636;2023-08-06T04:15:41;1.15;;;0.77;;
79284;SDS011;68734;50.452;11.636;2023-08-06T04:18:09;0.93;;;0.80;;
79284;SDS011;68734;50.452;11.636;2023-08-06T04:20:34;1.10;;;0.80;;
79284;SDS011;68734;50.452;11.636;2023-08-06T04:23:07;1.30;;;0.98;;
79284;SDS011;68734;50.452;11.636;2023-08-06T04:25:32;1.15;;;0.95;;
79284;SDS011;68734;50.452;11.636;2023-08-06T04:27:57;1.33;;;0.95;;
79284;SDS011;68734;50.452;11.636;2023-08-06T04:30:23;1.20;;;0.90;;
79284;SDS011;68734;50.452;11.636;2023-08-06T04:32:49;1.58;;;1.30;;
79284;SDS011;68734;50.452;11.636;2023-08-06T04:35:18;1.00;;;0.80;;
79284;SDS011;68734;50.452;11.636;2023-08-06T04:37:43;1.63;;;0.82;;
79284;SDS011;68734;50.452;11.636;2023-08-06T04:40:09;1.10;;;0.95;;
79284;SDS011;68734;50.452;11.636;2023-08-06T04:42:35;0.90;;;0.80;;
79284;SDS011;68734;50.452;11.636;2023-08-06T04:45:03;2.00;;;1.10;;
79284;SDS011;68734;50.452;11.636;2023-08-06T04:47:29;0.80;;;0.80;;
79284;SDS011;68734;50.452;11.636;2023-08-06T04:49:54;0.75;;;0.68;;
79284;SDS011;68734;50.452;11.636;2023-08-06T04:52:20;1.20;;;1.00;;
79284;SDS011;68734;50.452;11.636;2023-08-06T04:54:45;1.20;;;0.95;;
79284;SDS011;68734;50.452;11.636;2023-08-06T04:57:10;1.33;;;0.85;;
79284;SDS011;68734;50.452;11.636;2023-08-06T04:59:36;1.30;;;1.10;;
79284;SDS011;68734;50.452;11.636;2023-08-06T05:02:01;0.95;;;0.80;;
79284;SDS011;68734;50.452;11.636;2023-08-06T05:04:29;1.10;;;0.90;;
79284;SDS011;68734;50.452;11.636;2023-08-06T05:06:54;0.90;;;0.80;;
79284;SDS011;68734;50.452;11.636;2023-08-06T05:09:20;1.20;;;0.90;;
79284;SDS011;68734;50.452;11.636;2023-08-06T05:11:46;2.45;;;1.30;;
79284;SDS011;68734;50.452;11.636;2023-08-06T05:14:12;1.25;;;1.00;;
79284;SDS011;68734;50.452;11.636;2023-08-06T05:16:37;1.17;;;0.98;;
79284;SDS011;68734;50.452;11.636;2023-08-06T05:19:03;1.30;;;1.10;;
79284;SDS011;68734;50.452;11.636;2023-08-06T05:21:28;2.50;;;1.20;;
79284;SDS011;68734;50.452;11.636;2023-08-06T05:23:56;1.35;;;1.10;;
79284;SDS011;68734;50.452;11.636;2023-08-06T05:26:21;1.45;;;1.20;;
79284;SDS011;68734;50.452;11.636;2023-08-06T05:28:47;1.30;;;1.13;;
79284;SDS011;68734;50.452;11.636;2023-08-06T05:31:12;1.50;;;1.10;;
79284;SDS011;68734;50.452;11.636;2023-08-06T05:33:38;1.90;;;1.25;;
79284;SDS011;68734;50.452;11.636;2023-08-06T05:36:04;1.40;;;1.20;;
79284;SDS011;68734;50.452;11.636;2023-08-06T05:38:29;1.33;;;1.15;;
79284;SDS011;68734;50.452;11.636;2023-08-06T05:40:55;1.25;;;1.13;;
79284;SDS011;68734;50.452;11.636;2023-08-06T05:43:21;1.35;;;1.17;;
79284;SDS011;68734;50.452;11.636;2023-08-06T05:45:48;1.38;;;1.17;;
79284;SDS011;68734;50.452;11.636;2023-08-06T05:48:14;2.30;;;1.33;;
79284;SDS011;68734;50.452;11.636;2023-08-06T05:50:40;2.28;;;1.23;;
79284;SDS011;68734;50.452;11.636;2023-08-06T05:53:05;1.52;;;1.23;;
79284;SDS011;68734;50.452;11.636;2023-08-06T05:55:31;1.23;;;1.10;;
79284;SDS011;68734;50.452;11.636;2023-08-06T05:57:57;1.30;;;1.05;;
79284;SDS011;68734;50.452;11.636;2023-08-06T06:00:23;1.30;;;1.20;;
79284;SDS011;68734;50.452;11.636;2023-08-06T06:02:49;1.15;;;1.02;;
79284;SDS011;68734;50.452;11.636;2023-08-06T06:05:14;1.92;;;1.40;;
79284;SDS011;68734;50.452;11.636;2023-08-06T06:07:40;2.35;;;1.00;;
79284;SDS011;68734;50.452;11.636;2023-08-06T06:10:05;2.30;;;1.10;;
79284;SDS011;68734;50.452;11.636;2023-08-06T06:12:31;1.30;;;1.05;;
79284;SDS011;68734;50.452;11.636;2023-08-06T06:14:57;1.73;;;1.55;;
79284;SDS011;68734;50.452;11.636;2023-08-06T06:17:22;1.20;;;0.98;;
79284;SDS011;68734;50.452;11.636;2023-08-06T06:19:48;2.67;;;1.08;;
79284;SDS011;68734;50.452;11.636;2023-08-06T06:22:17;3.08;;;1.08;;
79284;SDS011;68734;50.452;11.636;2023-08-06T06:24:45;2.00;;;0.98;;
79284;SDS011;68734;50.452;11.636;2023-08-06T06:27:13;1.48;;;1.20;;
79284;SDS011;68734;50.452;11.636;2023-08-06T06:29:38;1.40;;;1.20;;
79284;SDS011;68734;50.452;11.636;2023-08-06T06:32:04;1.08;;;0.90;;
79284;SDS011;68734;50.452;11.636;2023-08-06T06:34:30;1.38;;;1.20;;
79284;SDS011;68734;50.452;11.636;2023-08-06T06:36:55;1.02;;;0.93;;
79284;SDS011;68734;50.452;11.636;2023-08-06T06:39:23;1.40;;;1.00;;
79284;SDS011;68734;50.452;11.636;2023-08-06T06:41:48;1.30;;;1.05;;
79284;SDS011;68734;50.452;11.636;2023-08-06T06:44:16;2.70;;;1.45;;
79284;SDS011;68734;50.452;11.636;2023-08-06T06:46:41;1.30;;;1.20;;
79284;SDS011;68734;50.452;11.636;2023-08-06T06:49:07;1.33;;;1.10;;
79284;SDS011;68734;50.452;11.636;2023-08-06T06:51:32;1.73;;;1.20;;
79284;SDS011;68734;50.452;11.636;2023-08-06T06:53:58;1.13;;;0.95;;
79284;SDS011;68734;50.452;11.636;2023-08-06T06:56:23;2.65;;;1.20;;
79284;SDS011;68734;50.452;11.636;2023-08-06T06:58:49;1.85;;;1.25;;
79284;SDS011;68734;50.452;11.636;2023-08-06T07:01:14;2.00;;;1.05;;
79284;SDS011;68734;50.452;11.636;2023-08-06T07:03:39;1.98;;;1.10;;
79284;SDS011;68734;50.452;11.636;2023-08-06T07:06:06;1.42;;;1.13;;
79284;SDS011;68734;50.452;11.636;2023-08-06T07:08:31;1.38;;;0.93;;
79284;SDS011;68734;50.452;11.636;2023-08-06T07:11:03;1.52;;;1.10;;
79284;SDS011;68734;50.452;11.636;2023-08-06T07:13:31;1.02;;;0.80;;
79284;SDS011;68734;50.452;11.636;2023-08-06T07:15:57;3.05;;;1.20;;
79284;SDS011;68734;50.452;11.636;2023-08-06T07:18:23;1.30;;;1.10;;
79284;SDS011;68734;50.452;11.636;2023-08-06T07:20:49;1.08;;;0.98;;
79284;SDS011;68734;50.452;11.636;2023-08-06T07:23:20;1.30;;;0.93;;
79284;SDS011;68734;50.452;11.636;2023-08-06T07:25:49;1.98;;;1.02;;
79284;SDS011;68734;50.452;11.636;2023-08-06T07:28:15;1.45;;;1.13;;
79284;SDS011;68734;50.452;11.636;2023-08-06T07:30:44;1.48;;;0.95;;
79284;SDS011;68734;50.452;11.636;2023-08-06T07:33:12;1.20;;;1.02;;
79284;SDS011;68734;50.452;11.636;2023-08-06T07:35:40;1.65;;;1.10;;
79284;SDS011;68734;50.452;11.636;2023-08-06T07:38:05;1.75;;;1.20;;
79284;SDS011;68734;50.452;11.636;2023-08-06T07:40:31;1.50;;;1.00;;
79284;SDS011;68734;50.452;11.636;2023-08-06T07:42:56;1.27;;;0.98;;
79284;SDS011;68734;50.452;11.636;2023-08-06T07:45:21;1.35;;;0.93;;
79284;SDS011;68734;50.452;11.636;2023-08-06T07:47:47;1.25;;;0.90;;
79284;SDS011;68734;50.452;11.636;2023-08-06T07:50:13;1.33;;;0.95;;
79284;SDS011;68734;50.452;11.636;2023-08-06T07:52:38;1.88;;;0.90;;
79284;SDS011;68734;50.452;11.636;2023-08-06T07:55:09;1.45;;;0.93;;
79284;SDS011;68734;50.452;11.636;2023-08-06T07:57:34;1.38;;;0.90;;
79284;SDS011;68734;50.452;11.636;2023-08-06T08:00:00;1.13;;;0.90;;
79284;SDS011;68734;50.452;11.636;2023-08-06T08:02:28;1.08;;;0.90;;
79284;SDS011;68734;50.452;11.636;2023-08-06T08:04:55;1.67;;;0.90;;
79284;SDS011;68734;50.452;11.636;2023-08-06T08:07:20;1.10;;;0.85;;
79284;SDS011;68734;50.452;11.636;2023-08-06T08:09:46;1.85;;;1.10;;
79284;SDS011;68734;50.452;11.636;2023-08-06T08:12:13;2.55;;;0.90;;
79284;SDS011;68734;50.452;11.636;2023-08-06T08:14:41;0.80;;;0.60;;
79284;SDS011;68734;50.452;11.636;2023-08-06T08:17:09;1.42;;;0.98;;
79284;SDS011;68734;50.452;11.636;2023-08-06T08:19:34;1.50;;;0.95;;
79284;SDS011;68734;50.452;11.636;2023-08-06T08:22:00;0.85;;;0.68;;
79284;SDS011;68734;50.452;11.636;2023-08-06T08:24:28;1.10;;;0.90;;
79284;SDS011;68734;50.452;11.636;2023-08-06T08:26:55;1.17;;;0.82;;
79284;SDS011;68734;50.452;11.636;2023-08-06T08:29:21;1.13;;;0.80;;
79284;SDS011;68734;50.452;11.636;2023-08-06T08:31:47;1.20;;;0.75;;
79284;SDS011;68734;50.452;11.636;2023-08-06T08:34:15;1.50;;;1.00;;
79284;SDS011;68734;50.452;11.636;2023-08-06T08:36:44;1.10;;;0.80;;
79284;SDS011;68734;50.452;11.636;2023-08-06T08:39:12;1.17;;;0.70;;
79284;SDS011;68734;50.452;11.636;2023-08-06T08:41:38;1.17;;;0.73;;
79284;SDS011;68734;50.452;11.636;2023-08-06T08:44:05;2.30;;;0.70;;
79284;SDS011;68734;50.452;11.636;2023-08-06T08:46:34;1.85;;;0.70;;
79284;SDS011;68734;50.452;11.636;2023-08-06T08:49:06;1.20;;;0.80;;
79284;SDS011;68734;50.452;11.636;2023-08-06T08:51:32;1.10;;;0.68;;
79284;SDS011;68734;50.452;11.636;2023-08-06T08:53:59;1.08;;;0.80;;
79284;SDS011;68734;50.452;11.636;2023-08-06T08:56:28;1.60;;;0.65;;
79284;SDS011;68734;50.452;11.636;2023-08-06T08:58:54;0.93;;;0.73;;
79284;SDS011;68734;50.452;11.636;2023-08-06T09:01:22;2.00;;;0.63;;
79284;SDS011;68734;50.452;11.636;2023-08-06T09:03:49;2.40;;;0.70;;
79284;SDS011;68734;50.452;11.636;2023-08-06T09:06:15;1.40;;;0.70;;
79284;SDS011;68734;50.452;11.636;2023-08-06T09:08:43;1.88;;;0.73;;
79284;SDS011;68734;50.452;11.636;2023-08-06T09:11:15;1.77;;;0.60;;
79284;SDS011;68734;50.452;11.636;2023-08-06T09:13:45;1.50;;;0.68;;
79284;SDS011;68734;50.452;11.636;2023-08-06T09:16:13;1.17;;;0.80;;
79284;SDS011;68734;50.452;11.636;2023-08-06T09:18:39;1.20;;;0.73;;
79284;SDS011;68734;50.452;11.636;2023-08-06T09:21:05;0.73;;;0.60;;
79284;SDS011;68734;50.452;11.636;2023-08-06T09:23:31;0.82;;;0.55;;
79284;SDS011;68734;50.452;11.636;2023-08-06T09:25:59;2.08;;;0.60;;
79284;SDS011;68734;50.452;11.636;2023-08-06T09:28:34;1.23;;;0.60;;
79284;SDS011;68734;50.452;11.636;2023-08-06T09:31:02;1.00;;;0.63;;
79284;SDS011;68734;50.452;11.636;2023-08-06T09:33:28;2.63;;;0.57;;
79284;SDS011;68734;50.452;11.636;2023-08-06T09:35:54;1.60;;;0.43;;
79284;SDS011;68734;50.452;11.636;2023-08-06T09:38:22;1.00;;;0.50;;
79284;SDS011;68734;50.452;11.636;2023-08-06T09:40:47;0.50;;;0.35;;
79284;SDS011;68734;50.452;11.636;2023-08-06T09:43:18;1.20;;;0.57;;
79284;SDS011;68734;50.452;11.636;2023-08-06T09:45:44;1.35;;;0.70;;
79284;SDS011;68734;50.452;11.636;2023-08-06T09:48:10;0.65;;;0.57;;
79284;SDS011;68734;50.452;11.636;2023-08-06T09:50:37;0.75;;;0.57;;
79284;SDS011;68734;50.452;11.636;2023-08-06T09:53:04;1.38;;;0.73;;
79284;SDS011;68734;50.452;11.636;2023-08-06T09:55:31;1.10;;;0.70;;
79284;SDS011;68734;50.452;11.636;2023-08-06T09:57:58;0.60;;;0.50;;
79284;SDS011;68734;50.452;11.636;2023-08-06T10:00:24;0.98;;;0.57;;
79284;SDS011;68734;50.452;11.636;2023-08-06T10:02:49;1.00;;;0.50;;
79284;SDS011;68734;50.452;11.636;2023-08-06T10:05:19;1.75;;;0.45;;
79284;SDS011;68734;50.452;11.636;2023-08-06T10:07:45;0.38;;;0.38;;
79284;SDS011;68734;50.452;11.636;2023-08-06T10:10:16;1.00;;;0.47;;
79284;SDS011;68734;50.452;11.636;2023-08-06T10:12:48;1.17;;;0.45;;
79284;SDS011;68734;50.452;11.636;2023-08-06T10:15:19;1.75;;;0.80;;
79284;SDS011;68734;50.452;11.636;2023-08-06T10:17:50;0.75;;;0.50;;
79284;SDS011;68734;50.452;11.636;2023-08-06T10:20:19;0.77;;;0.60;;
79284;SDS011;68734;50.452;11.636;2023-08-06T10:22:46;1.23;;;0.47;;
79284;SDS011;68734;50.452;11.636;2023-08-06T10:25:30;0.60;;;0.40;;
79284;SDS011;68734;50.452;11.636;2023-08-06T10:27:57;0.50;;;0.40;;
79284;SDS011;68734;50.452;11.636;2023-08-06T10:32:57;0.75;;;0.57;;
79284;SDS011;68734;50.452;11.636;2023-08-06T10:38:15;0.63;;;0.40;;
79284;SDS011;68734;50.452;11.636;2023-08-06T10:45:51;0.80;;;0.60;;
79284;SDS011;68734;50.452;11.636;2023-08-06T10:48:28;1.05;;;0.40;;
79284;SDS011;68734;50.452;11.636;2023-08-06T10:50:59;0.80;;;0.50;;
79284;SDS011;68734;50.452;11.636;2023-08-06T10:53:27;0.60;;;0.40;;
79284;SDS011;68734;50.452;11.636;2023-08-06T10:55:53;0.43;;;0.30;;
79284;SDS011;68734;50.452;11.636;2023-08-06T10:58:18;1.02;;;0.43;;
79284;SDS011;68734;50.452;11.636;2023-08-06T11:00:44;1.55;;;0.50;;
79284;SDS011;68734;50.452;11.636;2023-08-06T11:03:09;0.60;;;0.30;;
79284;SDS011;68734;50.452;11.636;2023-08-06T11:05:43;0.63;;;0.35;;
79284;SDS011;68734;50.452;11.636;2023-08-06T11:08:22;0.93;;;0.50;;
79284;SDS011;68734;50.452;11.636;2023-08-06T11:11:09;1.30;;;0.47;;
79284;SDS011;68734;50.452;11.636;2023-08-06T11:13:41;0.50;;;0.30;;
79284;SDS011;68734;50.452;11.636;2023-08-06T11:16:08;0.52;;;0.38;;
79284;SDS011;68734;50.452;11.636;2023-08-06T11:18:36;0.50;;;0.30;;
79284;SDS011;68734;50.452;11.636;2023-08-06T11:21:02;0.55;;;0.30;;
79284;SDS011;68734;50.452;11.636;2023-08-06T11:23:30;0.20;;;0.20;;
79284;SDS011;68734;50.452;11.636;2023-08-06T11:25:58;0.30;;;0.10;;
79284;SDS011;68734;50.452;11.636;2023-08-06T11:28:23;0.75;;;0.25;;
79284;SDS011;68734;50.452;11.636;2023-08-06T11:30:49;1.30;;;0.20;;
79284;SDS011;68734;50.452;11.636;2023-08-06T11:33:24;0.30;;;0.20;;
79284;SDS011;68734;50.452;11.636;2023-08-06T11:35:51;0.63;;;0.30;;
79284;SDS011;68734;50.452;11.636;2023-08-06T11:38:20;0.35;;;0.10;;
79284;SDS011;68734;50.452;11.636;2023-08-06T11:40:49;0.30;;;0.20;;
79284;SDS011;68734;50.452;11.636;2023-08-06T11:43:15;0.20;;;0.20;;
79284;SDS011;68734;50.452;11.636;2023-08-06T11:45:41;0.10;;;0.10;;
79284;SDS011;68734;50.452;11.636;2023-08-06T11:48:06;0.13;;;0.13;;
79284;SDS011;68734;50.452;11.636;2023-08-06T11:50:36;0.20;;;0.17;;
79284;SDS011;68734;50.452;11.636;2023-08-06T11:53:05;0.28;;;0.28;;
79284;SDS011;68734;50.452;11.636;2023-08-06T11:55:31;0.52;;;0.10;;
79284;SDS011;68734;50.452;11.636;2023-08-06T11:58:02;0.10;;;0.10;;
79284;SDS011;68734;50.452;11.636;2023-08-06T12:00:29;0.10;;;0.10;;
79284;SDS011;68734;50.452;11.636;2023-08-06T12:02:59;0.10;;;0.10;;
79284;SDS011;68734;50.452;11.636;2023-08-06T12:05:31;0.40;;;0.13;;
79284;SDS011;68734;50.452;11.636;2023-08-06T12:07:58;1.02;;;0.30;;
79284;SDS011;68734;50.452;11.636;2023-08-06T12:10:26;0.10;;;0.10;;
79284;SDS011;68734;50.452;11.636;2023-08-06T12:12:52;0.10;;;0.10;;
79284;SDS011;68734;50.452;11.636;2023-08-06T12:15:18;0.43;;;0.20;;
79284;SDS011;68734;50.452;11.636;2023-08-06T12:17:44;0.10;;;0.10;;
79284;SDS011;68734;50.452;11.636;2023-08-06T12:20:09;0.10;;;0.10;;
79284;SDS011;68734;50.452;11.636;2023-08-06T12:22:35;0.57;;;0.20;;
79284;SDS011;68734;50.452;11.636;2023-08-06T12:25:03;0.25;;;0.20;;
79284;SDS011;68734;50.452;11.636;2023-08-06T12:27:37;0.20;;;0.10;;
79284;SDS011;68734;50.452;11.636;2023-08-06T12:30:08;0.15;;;0.13;;
79284;SDS011;68734;50.452;11.636;2023-08-06T12:32:34;0.20;;;0.20;;
79284;SDS011;68734;50.452;11.636;2023-08-06T12:35:00;0.13;;;0.10;;
79284;SDS011;68734;50.452;11.636;2023-08-06T12:37:26;0.20;;;0.10;;
79284;SDS011;68734;50.452;11.636;2023-08-06T12:39:52;0.13;;;0.13;;
79284;SDS011;68734;50.452;11.636;2023-08-06T12:42:18;0.10;;;0.10;;
79284;SDS011;68734;50.452;11.636;2023-08-06T12:44:43;0.20;;;0.10;;
79284;SDS011;68734;50.452;11.636;2023-08-06T12:47:09;0.20;;;0.20;;
79284;SDS011;68734;50.452;11.636;2023-08-06T12:49:35;0.10;;;0.10;;
79284;SDS011;68734;50.452;11.636;2023-08-06T12:52:00;0.30;;;0.20;;
79284;SDS011;68734;50.452;11.636;2023-08-06T12:54:26;0.08;;;0.08;;
79284;SDS011;68734;50.452;11.636;2023-08-06T12:56:53;0.30;;;0.15;;
79284;SDS011;68734;50.452;11.636;2023-08-06T12:59:19;0.28;;;0.28;;
79284;SDS011;68734;50.452;11.636;2023-08-06T13:01:44;0.20;;;0.20;;
79284;SDS011;68734;50.452;11.636;2023-08-06T13:04:10;0.95;;;0.20;;
79284;SDS011;68734;50.452;11.636;2023-08-06T13:06:36;0.10;;;0.10;;
79284;SDS011;68734;50.452;11.636;2023-08-06T13:09:04;0.10;;;0.10;;
79284;SDS011;68734;50.452;11.636;2023-08-06T13:11:30;0.20;;;0.10;;
79284;SDS011;68734;50.452;11.636;2023-08-06T13:13:58;0.73;;;0.13;;
79284;SDS011;68734;50.452;11.636;2023-08-06T13:16:28;0.10;;;0.10;;
79284;SDS011;68734;50.452;11.636;2023-08-06T13:18:54;0.17;;;0.17;;
79284;SDS011;68734;50.452;11.636;2023-08-06T13:21:19;0.10;;;0.10;;
79284;SDS011;68734;50.452;11.636;2023-08-06T13:23:44;0.00;;;0.00;;
79284;SDS011;68734;50.452;11.636;2023-08-06T13:26:10;0.03;;;0.03;;
79284;SDS011;68734;50.452;11.636;2023-08-06T13:28:35;0.08;;;0.08;;
79284;SDS011;68734;50.452;11.636;2023-08-06T13:31:01;0.15;;;0.10;;
79284;SDS011;68734;50.452;11.636;2023-08-06T13:33:26;0.20;;;0.05;;
79284;SDS011;68734;50.452;11.636;2023-08-06T13:35:54;0.10;;;0.10;;
79284;SDS011;68734;50.452;11.636;2023-08-06T13:38:19;0.00;;;0.00;;
79284;SDS011;68734;50.452;11.636;2023-08-06T13:40:45;0.10;;;0.10;;
79284;SDS011;68734;50.452;11.636;2023-08-06T13:43:11;0.00;;;0.00;;
79284;SDS011;68734;50.452;11.636;2023-08-06T13:45:41;0.00;;;0.00;;
79284;SDS011;68734;50.452;11.636;2023-08-06T13:48:06;0.00;;;0.00;;
79284;SDS011;68734;50.452;11.636;2023-08-06T13:50:31;0.10;;;0.10;;
79284;SDS011;68734;50.452;11.636;2023-08-06T13:52:57;0.03;;;0.00;;
79284;SDS011;68734;50.452;11.636;2023-08-06T13:55:23;0.15;;;0.15;;
79284;SDS011;68734;50.452;11.636;2023-08-06T13:57:52;0.03;;;0.00;;
79284;SDS011;68734;50.452;11.636;2023-08-06T14:00:22;0.20;;;0.20;;
79284;SDS011;68734;50.452;11.636;2023-08-06T14:02:58;0.10;;;0.08;;
79284;SDS011;68734;50.452;11.636;2023-08-06T14:05:30;0.20;;;0.13;;
79284;SDS011;68734;50.452;11.636;2023-08-06T14:07:58;0.77;;;0.35;;
79284;SDS011;68734;50.452;11.636;2023-08-06T14:10:23;0.30;;;0.10;;
79284;SDS011;68734;50.452;11.636;2023-08-06T14:12:51;0.13;;;0.13;;
79284;SDS011;68734;50.452;11.636;2023-08-06T14:15:19;0.10;;;0.10;;
79284;SDS011;68734;50.452;11.636;2023-08-06T14:17:46;0.30;;;0.15;;
79284;SDS011;68734;50.452;11.636;2023-08-06T14:20:12;0.20;;;0.10;;
79284;SDS011;68734;50.452;11.636;2023-08-06T14:22:37;0.30;;;0.30;;
79284;SDS011;68734;50.452;11.636;2023-08-06T14:25:03;0.17;;;0.10;;
79284;SDS011;68734;50.452;11.636;2023-08-06T14:27:29;0.00;;;0.00;;
79284;SDS011;68734;50.452;11.636;2023-08-06T14:29:55;0.57;;;0.10;;
79284;SDS011;68734;50.452;11.636;2023-08-06T14:32:23;0.00;;;0.00;;
79284;SDS011;68734;50.452;11.636;2023-08-06T14:34:51;0.10;;;0.10;;
79284;SDS011;68734;50.452;11.636;2023-08-06T14:37:17;0.13;;;0.10;;
79284;SDS011;68734;50.452;11.636;2023-08-06T14:39:42;0.00;;;0.00;;
79284;SDS011;68734;50.452;11.636;2023-08-06T14:42:08;0.00;;;0.00;;
79284;SDS011;68734;50.452;11.636;2023-08-06T14:44:33;0.10;;;0.10;;